createdAt,value
2019-04-18T00:00:28.697Z,988.9
2019-04-18T00:01:30.743Z,989
2019-04-18T00:02:35.029Z,988.9
2019-04-18T00:03:52.096Z,989
2019-04-18T00:04:57.008Z,988.8
2019-04-18T00:05:58.375Z,988.8
2019-04-18T00:07:01.038Z,988.9
2019-04-18T00:08:03.398Z,988.9
2019-04-18T00:09:04.845Z,988.9
2019-04-18T00:10:06.270Z,989
2019-04-18T00:11:07.887Z,989
2019-04-18T00:12:09.198Z,989
2019-04-18T00:13:10.491Z,988.9
2019-04-18T00:14:14.153Z,989
2019-04-18T00:15:20.055Z,988.8
2019-04-18T00:16:25.968Z,989
2019-04-18T00:17:30.863Z,988.9
2019-04-18T00:18:35.610Z,988.9
2019-04-18T00:19:36.944Z,989
2019-04-18T00:20:38.190Z,989
2019-04-18T00:21:42.062Z,989
2019-04-18T00:22:43.300Z,989
2019-04-18T00:23:44.545Z,989
2019-04-18T00:24:45.794Z,989
2019-04-18T00:25:47.020Z,989
2019-04-18T00:26:48.298Z,988.9
2019-04-18T00:27:50.175Z,989
2019-04-18T00:28:54.664Z,989
2019-04-18T00:30:01.304Z,989.1
2019-04-18T00:31:07.393Z,989.1
2019-04-18T00:32:14.971Z,989
2019-04-18T00:33:19.684Z,989.1
2019-04-18T00:34:20.920Z,989.1
2019-04-18T00:35:22.160Z,989.1
2019-04-18T00:36:23.389Z,989.1
2019-04-18T00:37:25.580Z,989
2019-04-18T00:38:30.216Z,989
2019-04-18T00:39:31.604Z,989.1
2019-04-18T00:40:32.836Z,989.1
2019-04-18T00:41:34.102Z,989
2019-04-18T00:42:35.362Z,988.8
2019-04-18T00:43:36.588Z,989.1
2019-04-18T00:44:37.834Z,989.1
2019-04-18T00:45:44.514Z,989.2
2019-04-18T00:46:49.302Z,989.1
2019-04-18T00:47:54.539Z,988.9
2019-04-18T00:49:00.942Z,989.1
2019-04-18T00:50:02.831Z,989.1
2019-04-18T00:51:04.144Z,989.1
2019-04-18T00:52:05.571Z,989.2
2019-04-18T00:53:07.265Z,989
2019-04-18T00:54:08.572Z,989.1
2019-04-18T00:55:10.170Z,988.9
2019-04-18T00:56:11.445Z,989
2019-04-18T00:57:15.854Z,989.2
2019-04-18T00:58:20.182Z,989.1
2019-04-18T00:59:24.840Z,989.1
2019-04-18T01:00:28.856Z,989.1
2019-04-18T01:01:30.402Z,989.1
2019-04-18T01:02:31.628Z,989
2019-04-18T01:03:32.902Z,989.1
2019-04-18T01:04:34.952Z,989.2
2019-04-18T01:05:38.963Z,989.2
2019-04-18T01:06:40.469Z,989.2
2019-04-18T01:07:41.707Z,989.2
2019-04-18T01:08:43.012Z,989.1
2019-04-18T01:09:44.238Z,989.2
2019-04-18T01:10:45.474Z,989.2
2019-04-18T01:11:46.756Z,989.1
2019-04-18T01:12:48.248Z,989.1
2019-04-18T01:13:49.499Z,989.1
2019-04-18T01:14:51.016Z,989.2
2019-04-18T01:15:56.461Z,989.2
2019-04-18T01:17:05.457Z,989.2
2019-04-18T01:18:15.212Z,989.1
2019-04-18T01:19:20.585Z,988.9
2019-04-18T01:20:29.525Z,989.1
2019-04-18T01:21:33.959Z,989.1
2019-04-18T01:22:35.578Z,989.1
2019-04-18T01:23:36.824Z,989.2
2019-04-18T01:24:38.257Z,989.1
2019-04-18T01:25:39.483Z,989.2
2019-04-18T01:26:47.008Z,989.3
2019-04-18T01:27:48.397Z,989.3
2019-04-18T01:28:49.622Z,989.3
2019-04-18T01:29:50.883Z,989.2
2019-04-18T01:30:52.285Z,989.3
2019-04-18T01:31:53.499Z,989.3
2019-04-18T01:33:01.485Z,989.3
2019-04-18T01:34:15.012Z,989
2019-04-18T01:35:22.041Z,989.3
2019-04-18T01:36:29.147Z,989.3
2019-04-18T01:37:33.984Z,989.3
2019-04-18T01:38:35.641Z,989.2
2019-04-18T01:39:39.877Z,989.3
2019-04-18T01:40:41.161Z,989.2
2019-04-18T01:41:42.405Z,989.3
2019-04-18T01:42:43.645Z,989.4
2019-04-18T01:43:44.882Z,989.4
2019-04-18T01:44:47.614Z,989.4
2019-04-18T01:45:52.137Z,989.4
2019-04-18T01:46:56.195Z,989.4
2019-04-18T01:48:04.459Z,989.4
2019-04-18T01:49:11.474Z,989.3
2019-04-18T01:50:18.035Z,989.3
2019-04-18T01:51:22.636Z,989.3
2019-04-18T01:52:27.749Z,989.3
2019-04-18T01:53:32.682Z,989.3
2019-04-18T01:54:34.347Z,989.2
2019-04-18T01:55:35.577Z,989.3
2019-04-18T01:56:36.883Z,989.3
2019-04-18T01:57:38.434Z,989.3
2019-04-18T01:58:39.659Z,989.3
2019-04-18T01:59:41.966Z,989.4
2019-04-18T02:00:48.347Z,989.3
2019-04-18T02:01:57.615Z,989.4
2019-04-18T02:03:02.155Z,989.4
2019-04-18T02:04:09.720Z,989.4
2019-04-18T02:05:11.207Z,989.4
2019-04-18T02:06:12.493Z,989.4
2019-04-18T02:07:17.147Z,989.3
2019-04-18T02:08:20.539Z,989.3
2019-04-18T02:09:25.655Z,989.5
2019-04-18T02:10:31.277Z,989.5
2019-04-18T02:11:38.037Z,989.5
2019-04-18T02:12:42.803Z,989.5
2019-04-18T02:13:44.437Z,989.2
2019-04-18T02:14:45.679Z,989.5
2019-04-18T02:15:47.061Z,989.5
2019-04-18T02:16:48.285Z,989.5
2019-04-18T02:17:51.213Z,989.4
2019-04-18T02:18:55.487Z,989.5
2019-04-18T02:20:00.550Z,989.5
2019-04-18T02:21:10.771Z,989.5
2019-04-18T02:22:16.986Z,989.5
2019-04-18T02:23:23.032Z,989.6
2019-04-18T02:24:30.049Z,989.6
2019-04-18T02:25:31.382Z,989.6
2019-04-18T02:26:32.605Z,989.6
2019-04-18T02:27:33.841Z,989.5
2019-04-18T02:28:35.151Z,989.6
2019-04-18T02:29:42.578Z,989.6
2019-04-18T02:30:44.153Z,989.6
2019-04-18T02:31:46.616Z,989.7
2019-04-18T02:32:47.841Z,989.6
2019-04-18T02:33:49.139Z,989.7
2019-04-18T02:34:53.233Z,989.6
2019-04-18T02:35:58.589Z,989.7
2019-04-18T02:37:01.189Z,989.6
2019-04-18T02:38:02.421Z,989.6
2019-04-18T02:39:05.881Z,989.7
2019-04-18T02:40:07.103Z,989.7
2019-04-18T02:41:12.031Z,989.7
2019-04-18T02:42:18.629Z,989.7
2019-04-18T02:43:23.438Z,989.8
2019-04-18T02:44:28.669Z,989.7
2019-04-18T02:45:34.972Z,989.6
2019-04-18T02:46:36.338Z,989.6
2019-04-18T02:47:37.589Z,989.7
2019-04-18T02:48:38.885Z,989.7
2019-04-18T02:49:42.590Z,989.7
2019-04-18T02:50:44.063Z,989.6
2019-04-18T02:51:51.066Z,989.7
2019-04-18T02:52:58.186Z,989.7
2019-04-18T02:54:10.078Z,989.8
2019-04-18T02:55:19.427Z,989.7
2019-04-18T02:56:24.170Z,989.8
2019-04-18T02:57:32.118Z,989.8
2019-04-18T02:58:33.343Z,989.7
2019-04-18T02:59:34.609Z,989.7
2019-04-18T03:00:35.879Z,989.7
2019-04-18T03:01:37.113Z,989.8
2019-04-18T03:02:38.350Z,989.8
2019-04-18T03:03:44.396Z,989.8
2019-04-18T03:04:48.983Z,989.8
2019-04-18T03:05:51.865Z,989.8
2019-04-18T03:06:53.394Z,989.8
2019-04-18T03:07:57.107Z,989.8
2019-04-18T03:09:01.292Z,989.8
2019-04-18T03:10:10.014Z,989.8
2019-04-18T03:11:19.687Z,989.8
2019-04-18T03:12:21.159Z,989.7
2019-04-18T03:13:22.390Z,989.6
2019-04-18T03:14:23.623Z,989.8
2019-04-18T03:15:24.850Z,989.8
2019-04-18T03:16:26.128Z,989.8
2019-04-18T03:17:30.808Z,989.7
2019-04-18T03:18:36.425Z,989.8
2019-04-18T03:19:37.793Z,989.8
2019-04-18T03:20:40.184Z,989.8
2019-04-18T03:21:41.452Z,989.7
2019-04-18T03:22:42.686Z,989.9
2019-04-18T03:23:43.909Z,989.7
2019-04-18T03:24:49.619Z,989.8
2019-04-18T03:25:55.127Z,989.7
2019-04-18T03:27:02.712Z,989.7
2019-04-18T03:28:13.290Z,989.7
2019-04-18T03:29:20.868Z,989.8
2019-04-18T03:30:32.304Z,989.6
2019-04-18T03:31:33.654Z,989.7
2019-04-18T03:32:38.967Z,989.7
2019-04-18T03:33:45.196Z,989.7
2019-04-18T03:34:46.548Z,989.7
2019-04-18T03:35:53.131Z,989.8
2019-04-18T03:36:57.865Z,989.5
2019-04-18T03:37:59.372Z,989.8
2019-04-18T03:39:00.608Z,989.6
2019-04-18T03:40:01.833Z,989.7
2019-04-18T03:41:03.244Z,989.8
2019-04-18T03:42:04.790Z,989.7
2019-04-18T03:43:10.113Z,989.8
2019-04-18T03:44:16.083Z,989.7
2019-04-18T03:45:22.517Z,989.7
2019-04-18T03:46:26.890Z,989.8
2019-04-18T03:47:31.535Z,989.7
2019-04-18T03:48:38.505Z,989.9
2019-04-18T03:49:43.618Z,989.8
2019-04-18T03:50:50.240Z,989.7
2019-04-18T03:51:56.044Z,989.4
2019-04-18T03:53:01.268Z,989.9
2019-04-18T03:54:09.497Z,989.8
2019-04-18T03:55:11.442Z,989.8
2019-04-18T03:56:12.676Z,989.8
2019-04-18T03:57:13.898Z,989.7
2019-04-18T03:58:15.282Z,989.7
2019-04-18T03:59:20.282Z,989.8
2019-04-18T04:00:25.134Z,989.9
2019-04-18T04:01:31.312Z,990
2019-04-18T04:02:36.913Z,990
2019-04-18T04:03:38.231Z,989.9
2019-04-18T04:04:39.528Z,989.9
2019-04-18T04:05:40.770Z,990
2019-04-18T04:06:41.990Z,989.9
2019-04-18T04:07:43.251Z,989.9
2019-04-18T04:08:44.826Z,990
2019-04-18T04:09:46.068Z,990
2019-04-18T04:10:48.844Z,990
2019-04-18T04:11:55.407Z,989.9
2019-04-18T04:13:00.302Z,990
2019-04-18T04:14:05.647Z,989.5
2019-04-18T04:15:18.309Z,990
2019-04-18T04:16:24.108Z,990.1
2019-04-18T04:17:30.040Z,990
2019-04-18T04:18:31.360Z,990.1
2019-04-18T04:19:32.577Z,990
2019-04-18T04:20:36.414Z,990.1
2019-04-18T04:21:37.690Z,989.5
2019-04-18T04:22:38.928Z,990.2
2019-04-18T04:23:40.285Z,990.1
2019-04-18T04:24:41.840Z,990.1
2019-04-18T04:25:43.114Z,989.3
2019-04-18T04:26:44.362Z,990.1
2019-04-18T04:27:45.600Z,990.2
2019-04-18T04:28:46.826Z,990.2
2019-04-18T04:29:51.100Z,990.3
2019-04-18T04:30:52.392Z,990.2
2019-04-18T04:31:57.171Z,990.2
2019-04-18T04:33:02.435Z,990.2
2019-04-18T04:34:11.247Z,990.2
2019-04-18T04:35:19.453Z,990.3
2019-04-18T04:36:29.896Z,990.4
2019-04-18T04:37:44.406Z,990.5
2019-04-18T04:38:51.400Z,990.6
2019-04-18T04:39:57.566Z,990.6
2019-04-18T04:41:02.157Z,990.5
2019-04-18T04:42:14.313Z,990.6
2019-04-18T04:43:31.014Z,990.5
2019-04-18T04:44:37.020Z,990.5
2019-04-18T04:45:39.110Z,990.6
2019-04-18T04:46:42.055Z,990.6
2019-04-18T04:47:50.013Z,990.6
2019-04-18T04:48:54.951Z,990.6
2019-04-18T04:50:04.093Z,990.7
2019-04-18T04:51:15.509Z,990.7
2019-04-18T04:52:18.708Z,990.7
2019-04-18T04:53:19.998Z,990.7
2019-04-18T04:54:21.328Z,990.8
2019-04-18T04:55:22.590Z,990.9
2019-04-18T04:56:31.684Z,990.8
2019-04-18T04:57:38.951Z,990.8
2019-04-18T04:58:40.465Z,990.9
2019-04-18T04:59:51.541Z,990.8
2019-04-18T05:00:56.954Z,990.8
2019-04-18T05:02:06.603Z,990.9
2019-04-18T05:03:18.750Z,990.9
2019-04-18T05:04:22.974Z,990.9
2019-04-18T05:05:28.741Z,990.9
2019-04-18T05:06:43.218Z,990.9
2019-04-18T05:07:44.807Z,990.9
2019-04-18T05:08:46.051Z,990.9
2019-04-18T05:09:47.429Z,990.9
2019-04-18T05:10:49.537Z,991
2019-04-18T05:11:54.658Z,990.9
2019-04-18T05:13:01.913Z,990.9
2019-04-18T05:14:03.497Z,990.8
2019-04-18T05:15:09.121Z,990.9
2019-04-18T05:16:12.337Z,991
2019-04-18T05:17:14.129Z,991
2019-04-18T05:18:15.981Z,991
2019-04-18T05:19:17.498Z,990.9
2019-04-18T05:20:18.826Z,991
2019-04-18T05:21:20.266Z,991
2019-04-18T05:22:21.490Z,991
2019-04-18T05:23:22.749Z,991
2019-04-18T05:24:26.841Z,991
2019-04-18T05:25:30.903Z,991
2019-04-18T05:26:32.169Z,991
2019-04-18T05:27:34.521Z,991
2019-04-18T05:28:35.819Z,991
2019-04-18T05:29:37.922Z,991
2019-04-18T05:30:39.214Z,991.1
2019-04-18T05:31:40.809Z,991.1
2019-04-18T05:32:43.676Z,991.1
2019-04-18T05:33:44.931Z,991
2019-04-18T05:34:50.432Z,991
2019-04-18T05:36:00.785Z,991.1
2019-04-18T05:37:02.363Z,991.1
2019-04-18T05:38:03.607Z,991.1
2019-04-18T05:39:04.843Z,991.2
2019-04-18T05:40:06.119Z,991.2
2019-04-18T05:41:17.460Z,991.1
2019-04-18T05:42:23.866Z,991.2
2019-04-18T05:43:26.903Z,991.2
2019-04-18T05:44:36.711Z,991.1
2019-04-18T05:45:38.431Z,991.2
2019-04-18T05:46:39.707Z,991.2
2019-04-18T05:47:40.959Z,991.2
2019-04-18T05:48:44.379Z,991.1
2019-04-18T05:49:45.604Z,991.1
2019-04-18T05:50:48.606Z,991.1
2019-04-18T05:51:53.595Z,991
2019-04-18T05:53:00.025Z,991.1
2019-04-18T05:54:06.230Z,990.9
2019-04-18T05:55:08.719Z,991.2
2019-04-18T05:56:10.655Z,991.1
2019-04-18T05:57:12.055Z,991.1
2019-04-18T05:58:13.947Z,991.1
2019-04-18T05:59:22.991Z,991.2
2019-04-18T06:00:31.161Z,991.2
2019-04-18T06:01:33.469Z,991.1
2019-04-18T06:02:35.608Z,991.2
2019-04-18T06:03:36.844Z,991.2
2019-04-18T06:04:38.101Z,991.2
2019-04-18T06:05:39.329Z,991.2
2019-04-18T06:06:46.147Z,991.3
2019-04-18T06:07:47.525Z,991.2
2019-04-18T06:08:48.788Z,991.3
2019-04-18T06:09:50.026Z,991.3
2019-04-18T06:10:52.050Z,991.3
2019-04-18T06:11:58.361Z,991.3
2019-04-18T06:13:00.044Z,991.3
2019-04-18T06:14:01.361Z,991.3
2019-04-18T06:15:02.736Z,991.3
2019-04-18T06:16:04.251Z,991.3
2019-04-18T06:17:08.752Z,991.4
2019-04-18T06:18:11.712Z,991.4
2019-04-18T06:19:22.971Z,991.3
2019-04-18T06:20:33.791Z,991.4
2019-04-18T06:21:37.929Z,991.3
2019-04-18T06:22:39.438Z,991.4
2019-04-18T06:23:40.690Z,991.4
2019-04-18T06:24:41.996Z,991.4
2019-04-18T06:25:43.254Z,991.4
2019-04-18T06:26:44.525Z,991.4
2019-04-18T06:27:45.752Z,991.4
2019-04-18T06:28:47.085Z,991.4
2019-04-18T06:29:48.326Z,991.4
2019-04-18T06:30:49.568Z,991.4
2019-04-18T06:31:52.986Z,991.5
2019-04-18T06:32:57.590Z,991.5
2019-04-18T06:34:04.348Z,991.5
2019-04-18T06:35:06.338Z,991.5
2019-04-18T06:36:08.154Z,991.2
2019-04-18T06:37:09.388Z,991.5
2019-04-18T06:38:19.946Z,991.5
2019-04-18T06:39:25.342Z,991.5
2019-04-18T06:40:32.860Z,991.5
2019-04-18T06:41:39.940Z,991.5
2019-04-18T06:42:41.414Z,991.5
2019-04-18T06:43:42.670Z,991.6
2019-04-18T06:44:44.496Z,991.6
2019-04-18T06:45:50.224Z,991.6
2019-04-18T06:46:55.073Z,991.7
2019-04-18T06:47:56.300Z,991.7
2019-04-18T06:48:57.514Z,991.7
2019-04-18T06:49:58.788Z,991.7
2019-04-18T06:51:00.058Z,991.8
2019-04-18T06:52:04.074Z,991.8
2019-04-18T06:53:07.353Z,991.9
2019-04-18T06:54:09.120Z,991.9
2019-04-18T06:55:11.042Z,991.9
2019-04-18T06:56:18.647Z,991.9
2019-04-18T06:57:26.323Z,992
2019-04-18T06:58:39.755Z,992
2019-04-18T06:59:44.347Z,992
2019-04-18T07:00:45.805Z,992.1
2019-04-18T07:01:47.886Z,992.1
2019-04-18T07:02:49.150Z,992.1
2019-04-18T07:03:54.842Z,992.2
2019-04-18T07:05:02.342Z,992.2
2019-04-18T07:06:09.213Z,992.2
2019-04-18T07:07:20.229Z,992.3
2019-04-18T07:08:27.983Z,992.3
2019-04-18T07:09:38.407Z,992.4
2019-04-18T07:11:03.106Z,992.5
2019-04-18T07:12:13.386Z,992.5
2019-04-18T07:13:23.492Z,992.5
2019-04-18T07:14:31.453Z,992.5
2019-04-18T07:15:37.667Z,992.6
2019-04-18T07:16:44.784Z,992.7
2019-04-18T07:17:46.519Z,992.9
2019-04-18T07:18:50.243Z,992.8
2019-04-18T07:19:51.779Z,992.9
2019-04-18T07:20:53.268Z,992.8
2019-04-18T07:22:01.567Z,992.9
2019-04-18T07:23:07.766Z,992.9
2019-04-18T07:24:09.620Z,992.9
2019-04-18T07:25:11.552Z,993
2019-04-18T07:26:13.027Z,993
2019-04-18T07:27:16.658Z,993
2019-04-18T07:28:25.526Z,993
2019-04-18T07:29:31.790Z,993
2019-04-18T07:30:44.392Z,993.1
2019-04-18T07:31:46.375Z,993.1
2019-04-18T07:32:47.845Z,993.2
2019-04-18T07:33:50.088Z,993.2
2019-04-18T07:34:52.622Z,993.2
2019-04-18T07:35:54.201Z,993.2
2019-04-18T07:36:58.501Z,993.1
2019-04-18T07:38:00.057Z,993.2
2019-04-18T07:39:03.643Z,993.2
2019-04-18T07:40:09.614Z,993.3
2019-04-18T07:41:20.799Z,993.3
2019-04-18T07:42:22.340Z,993.4
2019-04-18T07:43:23.645Z,993.4
2019-04-18T07:44:27.915Z,993.5
2019-04-18T07:45:34.833Z,993.4
2019-04-18T07:46:40.515Z,993.4
2019-04-18T07:47:41.753Z,993.4
2019-04-18T07:48:43.017Z,993.5
2019-04-18T07:49:44.600Z,993.5
2019-04-18T07:50:46.013Z,993.5
2019-04-18T07:51:47.351Z,993.5
2019-04-18T07:52:49.006Z,993.4
2019-04-18T07:53:50.265Z,993.6
2019-04-18T07:54:51.527Z,993.4
2019-04-18T07:55:55.165Z,993.4
2019-04-18T07:56:56.412Z,993.5
2019-04-18T07:57:57.927Z,993.4
2019-04-18T07:59:13.570Z,993.6
2019-04-18T08:00:16.656Z,993.5
2019-04-18T08:01:18.166Z,993.5
2019-04-18T08:02:19.525Z,993.4
2019-04-18T08:03:39.454Z,993.5
2019-04-18T08:04:41.421Z,993.5
2019-04-18T08:05:42.699Z,993.5
2019-04-18T08:06:44.248Z,993.5
2019-04-18T08:07:45.491Z,993.6
2019-04-18T08:08:46.717Z,993.6
2019-04-18T08:09:47.950Z,993.6
2019-04-18T08:10:49.277Z,993.6
2019-04-18T08:11:51.871Z,993.7
2019-04-18T08:12:53.121Z,993.6
2019-04-18T08:13:54.589Z,993.6
2019-04-18T08:14:55.858Z,993.6
2019-04-18T08:15:57.142Z,993.5
2019-04-18T08:16:59.545Z,993.5
2019-04-18T08:18:00.775Z,993.5
2019-04-18T08:19:02.009Z,993.5
2019-04-18T08:20:03.259Z,993.5
2019-04-18T08:21:04.544Z,993.4
2019-04-18T08:22:08.592Z,993.5
2019-04-18T08:23:26.365Z,993.5
2019-04-18T08:24:34.983Z,993.5
2019-04-18T08:25:36.321Z,993.5
2019-04-18T08:26:39.100Z,993.6
2019-04-18T08:27:40.359Z,993.6
2019-04-18T08:28:43.092Z,993.5
2019-04-18T08:29:44.327Z,993.6
2019-04-18T08:30:48.257Z,993.5
2019-04-18T08:31:49.547Z,993.5
2019-04-18T08:32:53.327Z,993.4
2019-04-18T08:33:54.884Z,993.5
2019-04-18T08:34:56.272Z,993.2
2019-04-18T08:35:58.844Z,993.4
2019-04-18T08:38:28.366Z,993.4
2019-04-18T08:39:33.440Z,993.5
2019-04-18T08:40:34.877Z,993.5
2019-04-18T08:41:36.108Z,993.7
2019-04-18T08:42:37.385Z,993.6
2019-04-18T08:43:43.545Z,993.6
2019-04-18T08:44:44.790Z,993.7
2019-04-18T08:45:46.021Z,993.7
2019-04-18T08:46:47.264Z,993.6
2019-04-18T08:47:50.141Z,993.7
2019-04-18T08:48:57.615Z,993.6
2019-04-18T08:50:02.072Z,993.7
2019-04-18T08:51:03.771Z,993.4
2019-04-18T08:52:05.116Z,993.6
2019-04-18T08:53:06.592Z,993.6
2019-04-18T08:54:11.983Z,993.5
2019-04-18T08:55:13.380Z,993.4
2019-04-18T08:56:14.631Z,993.3
2019-04-18T08:57:18.499Z,993.5
2019-04-18T08:58:20.186Z,993.4
2019-04-18T08:59:37.763Z,993.4
2019-04-18T09:00:40.307Z,993.3
2019-04-18T09:01:41.543Z,993.3
2019-04-18T09:02:43.249Z,993.3
2019-04-18T09:03:44.548Z,993.3
2019-04-18T09:04:48.828Z,993.1
2019-04-18T09:05:53.814Z,993.3
2019-04-18T09:06:56.475Z,993.2
2019-04-18T09:08:03.063Z,993.2
2019-04-18T09:09:06.379Z,993.2
2019-04-18T09:10:11.223Z,993.1
2019-04-18T09:11:24.217Z,993.1
2019-04-18T09:12:27.276Z,993
2019-04-18T09:13:46.187Z,993
2019-04-18T09:14:54.613Z,992.9
2019-04-18T09:15:57.553Z,992.9
2019-04-18T09:17:00.744Z,992.8
2019-04-18T09:18:02.985Z,992.9
2019-04-18T09:19:13.401Z,992.8
2019-04-18T09:20:18.741Z,992.7
2019-04-18T09:21:27.900Z,992.6
2019-04-18T09:22:33.425Z,992.6
2019-04-18T09:23:43.064Z,992.6
2019-04-18T09:24:45.876Z,992.6
2019-04-18T09:25:48.364Z,992.5
2019-04-18T09:26:51.565Z,992.4
2019-04-18T09:27:58.411Z,992.5
2019-04-18T09:28:59.722Z,992.5
2019-04-18T09:30:07.132Z,992.6
2019-04-18T09:31:10.184Z,992.5
2019-04-18T09:32:15.252Z,992.4
2019-04-18T09:33:19.665Z,992.5
2019-04-18T09:34:23.723Z,992.4
2019-04-18T09:35:24.957Z,992.4
2019-04-18T09:36:30.799Z,992.7
2019-04-18T09:37:32.420Z,992.5
2019-04-18T09:38:36.662Z,992.3
2019-04-18T09:39:38.203Z,992.4
2019-04-18T09:40:39.484Z,992.4
2019-04-18T09:41:41.022Z,992.4
2019-04-18T09:42:42.326Z,992.1
2019-04-18T09:43:43.605Z,992
2019-04-18T09:44:53.742Z,991.8
2019-04-18T09:45:55.679Z,991.9
2019-04-18T09:46:56.950Z,991.9
2019-04-18T09:48:00.464Z,991.9
2019-04-18T09:49:05.028Z,991.9
2019-04-18T09:50:14.981Z,991.6
2019-04-18T09:51:26.883Z,991.8
2019-04-18T09:52:33.292Z,991.9
2019-04-18T09:53:34.864Z,991.8
2019-04-18T09:54:39.850Z,991.9
2019-04-18T09:55:41.152Z,991.9
2019-04-18T09:56:42.432Z,991.8
2019-04-18T09:57:43.732Z,991.8
2019-04-18T09:58:48.495Z,991.7
2019-04-18T09:59:49.871Z,991.8
2019-04-18T10:00:51.166Z,991.6
2019-04-18T10:01:54.560Z,991.7
2019-04-18T10:03:01.319Z,991.8
2019-04-18T10:04:03.179Z,991.4
2019-04-18T10:05:27.688Z,991.6
2019-04-18T10:06:30.418Z,991.7
2019-04-18T10:07:32.585Z,991.6
2019-04-18T10:08:33.878Z,991.6
2019-04-18T10:09:37.513Z,991.4
2019-04-18T10:10:38.759Z,991.3
2019-04-18T10:11:40.040Z,991.2
2019-04-18T10:12:41.344Z,991.3
2019-04-18T10:13:44.889Z,991.1
2019-04-18T10:14:46.128Z,991.1
2019-04-18T10:15:59.199Z,991
2019-04-18T10:17:00.664Z,991.1
2019-04-18T10:18:01.886Z,991.1
2019-04-18T10:19:03.166Z,991.1
2019-04-18T10:20:04.842Z,991
2019-04-18T10:21:06.098Z,991
2019-04-18T10:22:08.248Z,991.1
2019-04-18T10:23:09.604Z,990.8
2019-04-18T10:24:13.072Z,991.2
2019-04-18T10:25:14.309Z,991
2019-04-18T10:26:17.706Z,991
2019-04-18T10:27:19.260Z,991.1
2019-04-18T10:28:20.521Z,991.2
2019-04-18T10:29:21.981Z,991
2019-04-18T10:30:31.977Z,990.9
2019-04-18T10:31:33.525Z,991
2019-04-18T10:32:34.926Z,990.9
2019-04-18T10:33:36.185Z,990.9
2019-04-18T10:34:37.951Z,991
2019-04-18T10:35:40.281Z,990.7
2019-04-18T10:36:41.617Z,990.7
2019-04-18T10:37:42.855Z,990.7
2019-04-18T10:38:47.314Z,991
2019-04-18T10:39:49.475Z,990.8
2019-04-18T10:40:54.529Z,990.9
2019-04-18T10:41:58.270Z,990.6
2019-04-18T10:42:59.771Z,990.6
2019-04-18T10:44:01.005Z,990.5
2019-04-18T10:45:04.812Z,990.6
2019-04-18T10:46:17.054Z,990.7
2019-04-18T10:47:18.810Z,990.6
2019-04-18T10:48:20.296Z,990.5
2019-04-18T10:49:21.803Z,990.6
2019-04-18T10:50:24.287Z,990.5
2019-04-18T10:51:25.812Z,990.6
2019-04-18T10:52:27.049Z,990.5
2019-04-18T10:53:28.295Z,990.4
2019-04-18T10:54:29.539Z,990.3
2019-04-18T10:55:30.797Z,990.5
2019-04-18T10:56:32.028Z,990.4
2019-04-18T10:57:33.259Z,990.5
2019-04-18T10:58:34.528Z,990.3
2019-04-18T10:59:36.282Z,990.5
2019-04-18T11:00:44.566Z,990.3
2019-04-18T11:01:45.859Z,990.5
2019-04-18T11:02:47.313Z,990.3
2019-04-18T11:03:48.749Z,990.3
2019-04-18T11:04:54.527Z,990.6
2019-04-18T11:06:16.228Z,990.1
2019-04-18T11:07:21.145Z,990.3
2019-04-18T11:08:26.560Z,990.3
2019-04-18T11:09:29.226Z,990.2
2019-04-18T11:10:32.468Z,990.2
2019-04-18T11:11:34.372Z,990.1
2019-04-18T11:12:40.898Z,990.3
2019-04-18T11:13:44.442Z,990.2
2019-04-18T11:14:51.521Z,990.2
2019-04-18T11:15:52.834Z,990.1
2019-04-18T11:16:54.709Z,990.2
2019-04-18T11:17:56.122Z,990.3
2019-04-18T11:18:57.365Z,990.1
2019-04-18T11:19:58.632Z,990.2
2019-04-18T11:20:59.896Z,990.1
2019-04-18T11:22:01.247Z,990.1
2019-04-18T11:23:03.715Z,990.1
2019-04-18T11:24:05.138Z,990.2
2019-04-18T11:25:06.397Z,990.1
2019-04-18T11:26:13.197Z,990.1
2019-04-18T11:27:14.481Z,990
2019-04-18T11:28:18.631Z,989.9
2019-04-18T11:29:22.175Z,990.1
2019-04-18T11:30:30.755Z,990
2019-04-18T11:31:34.441Z,989.9
2019-04-18T11:32:35.740Z,990.1
2019-04-18T11:33:37.002Z,990
2019-04-18T11:34:40.018Z,989.9
2019-04-18T11:35:42.345Z,989.9
2019-04-18T11:36:45.787Z,989.9
2019-04-18T11:37:51.540Z,989.9
2019-04-18T11:38:52.803Z,989.9
2019-04-18T11:39:57.799Z,989.9
2019-04-18T11:40:59.118Z,990
2019-04-18T11:42:01.591Z,989.9
2019-04-18T11:43:08.024Z,989.8
2019-04-18T11:44:09.616Z,989.8
2019-04-18T11:45:13.105Z,989.9
2019-04-18T11:46:15.161Z,989.8
2019-04-18T11:47:16.594Z,989.8
2019-04-18T11:48:17.873Z,989.9
2019-04-18T11:49:21.489Z,989.9
2019-04-18T11:50:22.718Z,989.8
2019-04-18T11:51:23.981Z,989.9
2019-04-18T11:52:25.227Z,989.9
2019-04-18T11:53:26.500Z,989.9
2019-04-18T11:54:27.813Z,989.8
2019-04-18T11:55:29.863Z,989.8
2019-04-18T11:56:31.560Z,989.7
2019-04-18T11:57:32.787Z,989.7
2019-04-18T11:58:34.233Z,989.9
2019-04-18T11:59:35.530Z,989.8
2019-04-18T12:00:36.777Z,989.8
2019-04-18T12:01:38.276Z,989.9
2019-04-18T12:02:39.746Z,989.8
2019-04-18T12:03:44.515Z,990
2019-04-18T12:04:45.785Z,989.7
2019-04-18T12:05:50.943Z,989.8
2019-04-18T12:06:52.389Z,989.9
2019-04-18T12:08:01.539Z,989.9
2019-04-18T12:09:03.481Z,989.9
2019-04-18T12:10:06.991Z,989.9
2019-04-18T12:11:14.657Z,989.9
2019-04-18T12:12:16.946Z,990
2019-04-18T12:13:20.590Z,989.9
2019-04-18T12:14:22.193Z,989.8
2019-04-18T12:15:23.693Z,989.9
2019-04-18T12:16:27.371Z,989.9
2019-04-18T12:17:29.000Z,989.8
2019-04-18T12:18:32.392Z,989.8
2019-04-18T12:19:36.165Z,990
2019-04-18T12:20:37.439Z,989.8
2019-04-18T12:21:38.671Z,989.8
2019-04-18T12:22:39.942Z,989.8
2019-04-18T12:23:41.228Z,989.8
2019-04-18T12:24:42.509Z,989.8
2019-04-18T12:25:43.788Z,989.7
2019-04-18T12:26:52.174Z,989.7
2019-04-18T12:28:00.310Z,989.5
2019-04-18T12:29:02.685Z,989.7
2019-04-18T12:30:04.435Z,989.8
2019-04-18T12:31:06.331Z,989.7
2019-04-18T12:32:08.131Z,989.7
2019-04-18T12:33:12.771Z,989.7
2019-04-18T12:34:23.309Z,989.7
2019-04-18T12:35:24.831Z,989.7
2019-04-18T12:36:28.331Z,989.7
2019-04-18T12:37:34.054Z,989.7
2019-04-18T12:38:39.875Z,989.6
2019-04-18T12:39:44.875Z,989.6
2019-04-18T12:41:11.155Z,989.6
2019-04-18T12:42:13.874Z,989.6
2019-04-18T12:43:15.834Z,989.6
2019-04-18T12:44:17.155Z,989.7
2019-04-18T12:45:21.857Z,989.7
2019-04-18T12:46:23.355Z,989.8
2019-04-18T12:47:27.387Z,989.9
2019-04-18T12:48:28.773Z,989.6
2019-04-18T12:49:30.213Z,989.7
2019-04-18T12:50:31.521Z,989.7
2019-04-18T12:51:40.273Z,989.7
2019-04-18T12:52:45.122Z,989.7
2019-04-18T12:53:46.360Z,989.7
2019-04-18T12:54:47.613Z,989.6
2019-04-18T12:55:49.236Z,989.6
2019-04-18T12:56:50.631Z,989.6
2019-04-18T12:57:54.693Z,989.6
2019-04-18T12:58:56.013Z,989.6
2019-04-18T12:59:57.249Z,989.6
2019-04-18T13:00:59.059Z,989.6
2019-04-18T13:02:00.725Z,989.6
2019-04-18T13:03:03.561Z,989.5
2019-04-18T13:04:05.028Z,989.8
2019-04-18T13:05:06.904Z,989.4
2019-04-18T13:06:08.922Z,989.8
2019-04-18T13:07:10.951Z,989.5
2019-04-18T13:08:12.515Z,989.4
2019-04-18T13:09:13.875Z,989.4
2019-04-18T13:10:15.388Z,989.5
2019-04-18T13:11:16.621Z,989.4
2019-04-18T13:12:17.916Z,989.6
2019-04-18T13:13:19.145Z,989.5
2019-04-18T13:14:21.557Z,989.4
2019-04-18T13:15:22.793Z,989.4
2019-04-18T13:16:24.078Z,989.5
2019-04-18T13:17:25.364Z,989.7
2019-04-18T13:18:26.890Z,989.6
2019-04-18T13:19:28.142Z,988.8
2019-04-18T13:20:29.379Z,989.5
2019-04-18T13:21:30.656Z,989.5
2019-04-18T13:22:32.345Z,989.5
2019-04-18T13:23:36.033Z,989.5
2019-04-18T13:24:37.356Z,989.6
2019-04-18T13:25:38.650Z,989.7
2019-04-18T13:26:39.988Z,989.4
2019-04-18T13:27:43.638Z,989.5
2019-04-18T13:28:48.099Z,989.5
2019-04-18T13:29:50.563Z,989.2
2019-04-18T13:30:54.272Z,989.5
2019-04-18T13:32:06.499Z,989.5
2019-04-18T13:33:10.702Z,989.5
2019-04-18T13:34:12.065Z,989.5
2019-04-18T13:35:13.922Z,989.6
2019-04-18T13:36:17.485Z,989.6
2019-04-18T13:37:23.619Z,989.5
2019-04-18T13:38:27.439Z,989.6
2019-04-18T13:39:28.720Z,989.6
2019-04-18T13:40:32.404Z,989.4
2019-04-18T13:41:35.863Z,989.6
2019-04-18T13:42:37.297Z,989.4
2019-04-18T13:43:39.645Z,989.5
2019-04-18T13:44:43.345Z,989.4
2019-04-18T13:45:46.286Z,989.5
2019-04-18T13:46:47.683Z,989.5